createdAt,value
2019-02-02T00:00:23.313Z,2.23
2019-02-02T00:02:51.778Z,2.25
2019-02-02T00:05:20.239Z,2.29
2019-02-02T00:07:48.728Z,2.25
2019-02-02T00:10:17.253Z,2.29
2019-02-02T00:12:45.735Z,2.23
2019-02-02T00:15:14.192Z,2.12
2019-02-02T00:17:42.768Z,2.17
2019-02-02T00:20:12.191Z,2.21
2019-02-02T00:22:40.682Z,2.15
2019-02-02T00:25:09.153Z,2.13
2019-02-02T00:27:41.333Z,2.17
2019-02-02T00:30:13.618Z,2.15
2019-02-02T00:32:42.112Z,2.17
2019-02-02T00:35:10.824Z,2.14
2019-02-02T00:37:39.494Z,2.13
2019-02-02T00:40:11.008Z,2.14
2019-02-02T00:42:39.493Z,2.16
2019-02-02T00:45:16.214Z,2.13
2019-02-02T00:47:44.697Z,2.19
2019-02-02T00:50:15.109Z,2.12
2019-02-02T00:52:43.581Z,2.11
2019-02-02T00:55:14.625Z,2.13
2019-02-02T00:57:52.959Z,2.10
2019-02-02T01:00:26.764Z,2.06
2019-02-02T01:02:55.589Z,2.08
2019-02-02T01:05:24.398Z,2.10
2019-02-02T01:07:54.056Z,2.03
2019-02-02T01:10:34.258Z,2.07
2019-02-02T01:13:02.830Z,2.04
2019-02-02T01:15:31.476Z,2.01
2019-02-02T01:18:00.211Z,2.03
2019-02-02T01:20:30.171Z,2.03
2019-02-02T01:22:58.773Z,1.96
2019-02-02T01:25:27.256Z,1.93
2019-02-02T01:28:04.867Z,1.94
2019-02-02T01:32:57.889Z,1.93
2019-02-02T01:35:26.447Z,1.94
2019-02-02T01:37:54.918Z,1.92
2019-02-02T01:40:29.273Z,1.90
2019-02-02T01:42:57.740Z,1.90
2019-02-02T01:45:28.185Z,1.90
2019-02-02T01:47:57.174Z,1.90
2019-02-02T01:50:26.995Z,1.94
2019-02-02T01:52:55.788Z,1.95
2019-02-02T01:55:24.548Z,1.92
2019-02-02T01:57:53.340Z,1.93
2019-02-02T02:00:24.812Z,1.93
2019-02-02T02:02:53.357Z,1.89
2019-02-02T02:05:22.035Z,1.90
2019-02-02T02:07:50.513Z,1.83
2019-02-02T02:10:20.409Z,1.86
2019-02-02T02:12:49.166Z,1.82
2019-02-02T02:15:19.623Z,1.81
2019-02-02T02:17:48.415Z,1.81
2019-02-02T02:20:18.840Z,1.78
2019-02-02T02:22:48.447Z,1.80
2019-02-02T02:25:21.577Z,1.77
2019-02-02T02:27:50.392Z,1.73
2019-02-02T02:30:21.050Z,1.72
2019-02-02T02:32:51.038Z,1.79
2019-02-02T02:35:19.596Z,1.76
2019-02-02T02:37:48.069Z,1.77
2019-02-02T02:40:19.487Z,1.77
2019-02-02T02:42:48.150Z,1.65
2019-02-02T02:45:16.789Z,1.70
2019-02-02T02:47:45.517Z,1.62
2019-02-02T02:50:16.046Z,1.63
2019-02-02T02:52:44.515Z,1.62
2019-02-02T02:55:14.652Z,1.67
2019-02-02T02:57:43.370Z,1.65
2019-02-02T03:00:20.129Z,1.64
2019-02-02T03:02:49.167Z,1.67
2019-02-02T03:05:18.393Z,1.65
2019-02-02T03:07:47.896Z,1.63
2019-02-02T03:10:19.093Z,1.61
2019-02-02T03:12:47.623Z,1.65
2019-02-02T03:15:18.263Z,1.67
2019-02-02T03:17:47.257Z,1.65
2019-02-02T03:20:16.687Z,1.60
2019-02-02T03:22:45.887Z,1.64
2019-02-02T03:25:17.080Z,1.62
2019-02-02T03:27:45.548Z,1.62
2019-02-02T03:30:19.007Z,1.57
2019-02-02T03:32:47.519Z,1.56
2019-02-02T03:35:20.894Z,1.55
2019-02-02T03:37:49.426Z,1.57
2019-02-02T03:40:22.907Z,1.53
2019-02-02T03:42:51.921Z,1.51
2019-02-02T03:45:22.350Z,1.48
2019-02-02T03:47:51.744Z,1.46
2019-02-02T03:50:20.248Z,1.47
2019-02-02T03:52:48.843Z,1.47
2019-02-02T03:55:17.494Z,1.46
2019-02-02T03:57:46.053Z,1.46
2019-02-02T04:00:22.875Z,1.49
2019-02-02T04:02:51.464Z,1.50
2019-02-02T04:05:30.163Z,1.48
2019-02-02T04:07:58.765Z,1.46
2019-02-02T04:10:27.253Z,1.47
2019-02-02T04:12:55.726Z,1.43
2019-02-02T04:15:24.192Z,1.45
2019-02-02T04:17:52.763Z,1.42
2019-02-02T04:20:23.374Z,1.44
2019-02-02T04:22:52.296Z,1.44
2019-02-02T04:25:22.234Z,1.44
2019-02-02T04:27:51.105Z,1.47
2019-02-02T04:30:24.849Z,1.48
2019-02-02T04:32:53.457Z,1.44
2019-02-02T04:35:22.523Z,1.44
2019-02-02T04:37:51.019Z,1.40
2019-02-02T04:40:19.557Z,1.36
2019-02-02T04:42:48.138Z,1.37
2019-02-02T04:45:18.019Z,1.42
2019-02-02T04:47:46.660Z,1.41
2019-02-02T04:50:20.996Z,1.41
2019-02-02T04:52:49.755Z,1.44
2019-02-02T04:55:19.659Z,1.43
2019-02-02T04:57:48.314Z,1.45
2019-02-02T05:00:19.731Z,1.42
2019-02-02T05:02:48.295Z,1.41
2019-02-02T05:05:18.027Z,1.37
2019-02-02T05:07:46.595Z,1.38
2019-02-02T05:10:19.865Z,1.43
2019-02-02T05:12:48.735Z,1.41
2019-02-02T05:15:17.187Z,1.42
2019-02-02T05:17:45.672Z,1.42
2019-02-02T05:20:16.730Z,1.39
2019-02-02T05:22:45.300Z,1.39
2019-02-02T05:25:14.363Z,1.37
2019-02-02T05:27:42.935Z,1.40
2019-02-02T05:30:17.243Z,1.41
2019-02-02T05:32:45.725Z,1.41
2019-02-02T05:35:14.204Z,1.42
2019-02-02T05:37:42.984Z,1.45
2019-02-02T05:40:14.663Z,1.38
2019-02-02T05:42:43.187Z,1.41
2019-02-02T05:45:14.946Z,1.46
2019-02-02T05:47:43.426Z,1.51
2019-02-02T05:50:14.677Z,1.49
2019-02-02T05:52:43.232Z,1.50
2019-02-02T05:55:14.042Z,1.51
2019-02-02T05:57:42.527Z,1.47
2019-02-02T06:00:15.704Z,1.51
2019-02-02T06:02:44.356Z,1.53
2019-02-02T06:05:13.032Z,1.55
2019-02-02T06:07:41.515Z,1.57
2019-02-02T06:10:13.258Z,1.60
2019-02-02T06:12:41.754Z,1.57
2019-02-02T06:15:10.745Z,1.58
2019-02-02T06:17:39.228Z,1.59
2019-02-02T06:20:10.783Z,1.63
2019-02-02T06:22:39.272Z,1.63
2019-02-02T06:25:12.650Z,1.64
2019-02-02T06:27:41.143Z,1.66
2019-02-02T06:30:24.109Z,1.68
2019-02-02T06:32:53.326Z,1.67
2019-02-02T06:35:21.870Z,1.65
2019-02-02T06:37:50.430Z,1.67
2019-02-02T06:40:19.014Z,1.72
2019-02-02T06:42:47.464Z,1.73
2019-02-02T06:45:19.213Z,1.71
2019-02-02T06:47:47.694Z,1.70
2019-02-02T06:50:17.605Z,1.65
2019-02-02T06:52:46.082Z,1.60
2019-02-02T06:55:16.488Z,1.62
2019-02-02T06:57:45.313Z,1.61
2019-02-02T07:00:22.772Z,1.62
2019-02-02T07:02:51.248Z,1.61
2019-02-02T07:05:19.854Z,1.57
2019-02-02T07:07:48.418Z,1.61
2019-02-02T07:10:19.764Z,1.66
2019-02-02T07:12:48.317Z,1.59
2019-02-02T07:15:19.219Z,1.65
2019-02-02T07:17:47.787Z,1.62
2019-02-02T07:20:16.391Z,1.60
2019-02-02T07:22:44.866Z,1.58
2019-02-02T07:25:13.777Z,1.57
2019-02-02T07:27:42.284Z,1.61
2019-02-02T07:30:27.590Z,1.59
2019-02-02T07:32:46.512Z,1.59
2019-02-02T07:35:15.332Z,1.58
2019-02-02T07:37:43.812Z,1.59
2019-02-02T07:40:17.106Z,1.65
2019-02-02T07:42:46.033Z,1.66
2019-02-02T07:45:20.183Z,1.66
2019-02-02T07:47:48.900Z,1.71
2019-02-02T07:50:18.036Z,1.68
2019-02-02T07:52:46.664Z,1.68
2019-02-02T07:55:20.116Z,1.68
2019-02-02T07:57:48.766Z,1.72
2019-02-02T08:00:22.882Z,1.72
2019-02-02T08:02:51.444Z,1.75
2019-02-02T08:05:19.983Z,1.76
2019-02-02T08:07:48.457Z,1.79
2019-02-02T08:10:17.067Z,1.80
2019-02-02T08:12:45.564Z,1.75
2019-02-02T08:15:19.730Z,1.76
2019-02-02T08:17:48.221Z,1.83
2019-02-02T08:20:16.770Z,1.86
2019-02-02T08:22:45.324Z,1.86
2019-02-02T08:25:15.824Z,1.89
2019-02-02T08:27:44.369Z,1.90
2019-02-02T08:30:18.149Z,1.89
2019-02-02T08:32:46.890Z,1.89
2019-02-02T08:35:15.928Z,1.92
2019-02-02T08:37:44.501Z,1.94
2019-02-02T08:40:15.717Z,1.96
2019-02-02T08:42:44.233Z,1.95
2019-02-02T08:45:14.749Z,1.94
2019-02-02T08:47:43.281Z,1.95
2019-02-02T08:50:23.822Z,1.94
2019-02-02T08:52:52.307Z,1.93
2019-02-02T08:55:20.843Z,1.94
2019-02-02T08:57:49.535Z,1.95
2019-02-02T09:00:19.821Z,1.94
2019-02-02T09:02:48.501Z,2.01
2019-02-02T09:05:19.861Z,2.01
2019-02-02T09:07:48.645Z,2.03
2019-02-02T09:10:19.855Z,2.02
2019-02-02T09:12:48.308Z,2.04
2019-02-02T09:15:18.421Z,2.05
2019-02-02T09:17:46.954Z,2.05
2019-02-02T09:20:16.193Z,2.05
2019-02-02T09:22:45.611Z,2.06
2019-02-02T09:25:16.138Z,2.09
2019-02-02T09:27:44.597Z,2.04
2019-02-02T09:30:22.256Z,2.02
2019-02-02T09:32:50.719Z,2.10
2019-02-02T09:35:19.221Z,2.05
2019-02-02T09:37:47.760Z,2.10
2019-02-02T09:40:18.293Z,2.15
2019-02-02T09:42:46.827Z,2.18
2019-02-02T09:45:17.750Z,2.22
2019-02-02T09:47:46.236Z,2.22
2019-02-02T09:50:17.613Z,2.15
2019-02-02T09:52:46.067Z,2.18
2019-02-02T09:55:17.373Z,2.17
2019-02-02T09:57:45.845Z,2.22
2019-02-02T10:00:17.277Z,2.21
2019-02-02T10:02:46.141Z,2.19
2019-02-02T10:05:14.781Z,2.20
2019-02-02T10:07:43.251Z,2.41
2019-02-02T10:10:16.895Z,2.59
2019-02-02T10:12:45.437Z,2.36
2019-02-02T10:15:16.993Z,2.33
2019-02-02T10:17:45.486Z,2.33
2019-02-02T10:20:19.363Z,2.30
2019-02-02T10:22:47.896Z,2.29
2019-02-02T10:25:21.755Z,2.31
2019-02-02T10:27:50.561Z,2.31
2019-02-02T10:30:22.932Z,2.38
2019-02-02T10:32:51.469Z,2.36
2019-02-02T10:35:20.047Z,2.37
2019-02-02T10:37:48.584Z,2.43
2019-02-02T10:40:17.219Z,2.46
2019-02-02T10:42:45.861Z,2.41
2019-02-02T10:45:16.692Z,2.38
2019-02-02T10:47:45.593Z,2.31
2019-02-02T10:50:19.772Z,2.41
2019-02-02T10:52:48.229Z,2.41
2019-02-02T10:55:17.070Z,2.48
2019-02-02T10:57:45.607Z,2.45
2019-02-02T11:00:26.608Z,2.52
2019-02-02T11:02:55.156Z,2.43
2019-02-02T11:05:24.031Z,2.56
2019-02-02T11:07:54.612Z,2.59
2019-02-02T11:10:25.736Z,2.59
2019-02-02T11:12:54.507Z,2.56
2019-02-02T11:15:24.208Z,2.58
2019-02-02T11:17:52.845Z,2.52
2019-02-02T11:20:36.322Z,2.57
2019-02-02T11:23:05.519Z,2.59
2019-02-02T11:25:34.155Z,2.60
2019-02-02T11:28:02.783Z,2.60
2019-02-02T11:30:31.438Z,2.60
2019-02-02T11:32:59.972Z,2.64
2019-02-02T11:35:28.456Z,2.62
2019-02-02T11:37:56.908Z,2.62
2019-02-02T11:40:27.876Z,2.64
2019-02-02T11:42:56.788Z,2.64
2019-02-02T11:45:25.773Z,2.69
2019-02-02T11:47:54.248Z,2.64
2019-02-02T11:50:23.583Z,2.59
2019-02-02T11:52:52.140Z,2.61
2019-02-02T11:55:22.905Z,2.61
2019-02-02T11:57:51.656Z,2.67
2019-02-02T12:00:28.802Z,2.69
2019-02-02T12:02:57.354Z,2.69
2019-02-02T12:05:25.969Z,2.61
2019-02-02T12:07:54.608Z,2.62
2019-02-02T12:10:25.622Z,2.63
2019-02-02T12:12:54.084Z,2.70
2019-02-02T12:15:22.659Z,2.74
2019-02-02T12:17:51.255Z,2.71
2019-02-02T12:20:22.087Z,2.62
2019-02-02T12:22:50.569Z,2.70
2019-02-02T12:25:19.140Z,2.73
2019-02-02T12:27:47.677Z,2.65
2019-02-02T12:30:24.178Z,2.67
2019-02-02T12:32:52.656Z,2.66
2019-02-02T12:35:23.295Z,2.61
2019-02-02T12:37:51.775Z,2.63
2019-02-02T12:40:22.507Z,2.62
2019-02-02T12:42:51.419Z,2.65
2019-02-02T12:45:25.944Z,2.54
2019-02-02T12:47:54.421Z,2.63
2019-02-02T12:50:23.045Z,2.59
2019-02-02T12:52:51.519Z,2.47
2019-02-02T12:55:20.018Z,2.46
2019-02-02T12:57:48.563Z,2.50
2019-02-02T13:00:19.299Z,2.38
2019-02-02T13:02:47.917Z,2.29
2019-02-02T13:05:19.157Z,2.41
2019-02-02T13:07:47.628Z,2.41
2019-02-02T13:10:19.162Z,2.31
2019-02-02T13:12:47.780Z,2.30
2019-02-02T13:15:17.281Z,2.39
2019-02-02T13:17:45.762Z,2.36
2019-02-02T13:20:16.297Z,2.43
2019-02-02T13:22:44.846Z,2.40
2019-02-02T13:25:15.883Z,2.39
2019-02-02T13:27:44.356Z,2.31
2019-02-02T13:30:15.918Z,2.36
2019-02-02T13:32:49.879Z,2.35
2019-02-02T13:35:16.788Z,2.35
2019-02-02T13:37:45.261Z,2.34
2019-02-02T13:40:19.289Z,2.32
2019-02-02T13:42:47.746Z,2.15
2019-02-02T13:45:18.484Z,2.25
2019-02-02T13:47:46.959Z,2.19
2019-02-02T13:50:17.038Z,2.10
2019-02-02T13:52:46.382Z,2.15
2019-02-02T13:55:15.185Z,2.07
2019-02-02T13:57:43.661Z,2.12
2019-02-02T14:00:23.756Z,2.02
2019-02-02T14:03:02.083Z,1.96
2019-02-02T14:05:22.594Z,1.97
2019-02-02T14:07:51.146Z,1.93
2019-02-02T14:10:21.867Z,2.02
2019-02-02T14:12:50.341Z,1.98
2019-02-02T14:15:19.110Z,2.03
2019-02-02T14:17:47.660Z,1.98
2019-02-02T14:20:16.516Z,1.90
2019-02-02T14:22:44.983Z,1.93
2019-02-02T14:25:15.514Z,1.96
2019-02-02T14:27:44.156Z,1.89
2019-02-02T14:30:15.291Z,1.96
2019-02-02T14:32:43.751Z,1.96
2019-02-02T14:35:14.681Z,1.93
2019-02-02T14:37:43.164Z,1.92
2019-02-02T14:40:14.009Z,1.88
2019-02-02T14:42:42.463Z,1.97
2019-02-02T14:45:13.585Z,2.00
2019-02-02T14:47:42.120Z,1.93
2019-02-02T14:50:13.699Z,2.14
2019-02-02T14:52:42.170Z,1.98
2019-02-02T14:55:13.936Z,1.97
2019-02-02T14:57:42.743Z,1.91
2019-02-02T15:00:17.139Z,1.87
2019-02-02T15:02:45.608Z,1.92
2019-02-02T15:05:14.643Z,1.83
2019-02-02T15:07:43.104Z,1.90
2019-02-02T15:10:13.531Z,1.85
2019-02-02T15:12:42.282Z,1.81
2019-02-02T15:15:12.918Z,1.87
2019-02-02T15:17:44.416Z,1.92
2019-02-02T15:20:17.997Z,1.92
2019-02-02T15:22:46.532Z,1.92
2019-02-02T15:25:15.233Z,1.79
2019-02-02T15:27:43.733Z,1.86
2019-02-02T15:30:27.146Z,1.86
2019-02-02T15:32:55.687Z,1.80
2019-02-02T15:35:24.321Z,1.76
2019-02-02T15:37:52.788Z,1.82
2019-02-02T15:40:22.931Z,1.73
2019-02-02T15:42:51.415Z,1.73
2019-02-02T15:45:25.446Z,1.76
2019-02-02T15:47:53.978Z,1.78
2019-02-02T15:50:22.442Z,1.78
2019-02-02T15:52:50.925Z,1.81
2019-02-02T15:55:21.443Z,1.82
2019-02-02T15:57:50.494Z,1.85
2019-02-02T16:00:30.216Z,1.69
2019-02-02T16:02:58.715Z,1.73
2019-02-02T16:05:27.914Z,1.61
2019-02-02T16:07:57.757Z,1.57
2019-02-02T16:10:28.906Z,1.62
2019-02-02T16:12:57.858Z,1.63
2019-02-02T16:15:26.327Z,1.71
2019-02-02T16:17:54.910Z,1.77
2019-02-02T16:20:26.132Z,1.69
2019-02-02T16:22:54.628Z,1.66
2019-02-02T16:25:24.643Z,1.69
2019-02-02T16:27:53.126Z,1.67
2019-02-02T16:30:24.639Z,1.68
2019-02-02T16:32:53.239Z,1.68
2019-02-02T16:35:21.853Z,1.74
2019-02-02T16:37:50.355Z,1.75
2019-02-02T16:40:24.071Z,1.73
2019-02-02T16:42:53.746Z,1.67
2019-02-02T16:45:25.009Z,1.67
2019-02-02T16:47:53.768Z,1.75
2019-02-02T16:50:23.294Z,1.73
2019-02-02T16:52:51.790Z,1.76
2019-02-02T16:55:20.387Z,1.76
2019-02-02T16:57:48.969Z,1.66
2019-02-02T17:00:25.024Z,1.69
2019-02-02T17:02:53.768Z,1.74
2019-02-02T17:05:22.319Z,1.66
2019-02-02T17:07:51.771Z,1.70
2019-02-02T17:10:31.440Z,1.67
2019-02-02T17:13:00.141Z,1.73
2019-02-02T17:15:28.750Z,1.66
2019-02-02T17:17:57.245Z,1.68
2019-02-02T17:20:31.338Z,1.69
2019-02-02T17:22:59.823Z,1.65
2019-02-02T17:25:28.355Z,1.68
2019-02-02T17:27:56.853Z,1.75
2019-02-02T17:30:26.259Z,1.75
2019-02-02T17:33:00.648Z,1.72
2019-02-02T17:35:29.110Z,1.65
2019-02-02T17:37:57.614Z,1.70
2019-02-02T17:40:28.754Z,1.66
2019-02-02T17:42:57.573Z,1.69
2019-02-02T17:45:26.195Z,1.75
2019-02-02T17:47:54.672Z,1.64
2019-02-02T17:50:27.964Z,1.67
2019-02-02T17:52:56.594Z,1.71
2019-02-02T17:55:25.138Z,1.75
2019-02-02T17:57:53.615Z,1.73
2019-02-02T18:00:28.967Z,1.74
2019-02-02T18:02:57.443Z,1.77
2019-02-02T18:05:25.988Z,1.71
2019-02-02T18:07:54.468Z,1.76
2019-02-02T18:10:23.318Z,1.73
2019-02-02T18:12:51.802Z,1.73
2019-02-02T18:15:20.283Z,1.80
2019-02-02T18:17:48.767Z,1.77
2019-02-02T18:20:17.584Z,1.79
2019-02-02T18:22:46.078Z,1.69
2019-02-02T18:25:16.763Z,1.67
2019-02-02T18:27:45.325Z,1.66
2019-02-02T18:30:19.155Z,1.72
2019-02-02T18:32:48.029Z,1.60
2019-02-02T18:35:17.533Z,1.69
2019-02-02T18:37:46.011Z,1.69
2019-02-02T18:40:19.165Z,1.64
2019-02-02T18:42:47.660Z,1.71
2019-02-02T18:45:21.553Z,1.57
2019-02-02T18:47:50.115Z,1.66
2019-02-02T18:50:18.721Z,1.69
2019-02-02T18:52:49.158Z,1.63
2019-02-02T18:55:23.706Z,1.63
2019-02-02T18:57:52.198Z,1.60
2019-02-02T19:00:21.689Z,1.62
2019-02-02T19:02:50.251Z,1.51
2019-02-02T19:05:18.724Z,1.55
2019-02-02T19:07:47.211Z,1.66
2019-02-02T19:10:24.366Z,1.71
2019-02-02T19:12:52.852Z,1.65
2019-02-02T19:15:21.394Z,1.58
2019-02-02T19:17:49.901Z,1.59
2019-02-02T19:20:23.084Z,1.59
2019-02-02T19:22:51.572Z,1.58
2019-02-02T19:25:20.033Z,1.56
2019-02-02T19:27:48.583Z,1.63
2019-02-02T19:30:28.198Z,1.67
2019-02-02T19:32:56.682Z,1.65
2019-02-02T19:35:25.487Z,1.59
2019-02-02T19:37:53.977Z,1.60
2019-02-02T19:40:22.502Z,1.59
2019-02-02T19:42:50.979Z,1.56
2019-02-02T19:45:22.221Z,1.57
2019-02-02T19:47:50.707Z,1.63
2019-02-02T19:50:22.292Z,1.68
2019-02-02T19:52:50.851Z,1.69
2019-02-02T19:55:19.409Z,1.63
2019-02-02T19:57:48.318Z,1.65
2019-02-02T20:00:18.847Z,1.65
2019-02-02T20:02:47.313Z,1.67
2019-02-02T20:05:27.534Z,1.73
2019-02-02T20:07:46.187Z,1.72
2019-02-02T20:10:18.846Z,1.68
2019-02-02T20:12:47.449Z,1.69
2019-02-02T20:15:18.687Z,1.73
2019-02-02T20:17:47.217Z,1.65
2019-02-02T20:20:18.294Z,1.71
2019-02-02T20:22:46.914Z,1.72
2019-02-02T20:25:15.879Z,1.72
2019-02-02T20:27:44.675Z,1.67
2019-02-02T20:30:28.070Z,1.68
2019-02-02T20:32:57.527Z,1.66
2019-02-02T20:35:26.191Z,1.74
2019-02-02T20:37:54.884Z,1.72
2019-02-02T20:40:25.412Z,1.72
2019-02-02T20:42:54.151Z,1.71
2019-02-02T20:45:28.141Z,1.72
2019-02-02T20:47:56.626Z,1.77
2019-02-02T20:50:25.113Z,1.73
2019-02-02T20:52:53.571Z,1.69
2019-02-02T20:55:31.179Z,1.71
2019-02-02T20:57:59.632Z,1.72
2019-02-02T21:00:29.927Z,1.76
2019-02-02T21:02:58.402Z,1.75
2019-02-02T21:05:26.955Z,1.78
2019-02-02T21:07:55.419Z,1.69
2019-02-02T21:10:25.145Z,1.71
2019-02-02T21:12:53.986Z,1.67
2019-02-02T21:15:22.540Z,1.76
2019-02-02T21:17:51.171Z,1.66
2019-02-02T21:20:25.456Z,1.70
2019-02-02T21:22:54.070Z,1.66
2019-02-02T21:25:22.628Z,1.67
2019-02-02T21:27:51.097Z,1.75
2019-02-02T21:30:22.181Z,1.75
2019-02-02T21:32:50.783Z,1.79
2019-02-02T21:35:19.790Z,1.77
2019-02-02T21:37:48.258Z,1.75
2019-02-02T21:40:21.937Z,1.62
2019-02-02T21:42:50.389Z,1.71
2019-02-02T21:45:18.944Z,1.73
2019-02-02T21:47:48.177Z,1.60
2019-02-02T21:50:19.144Z,1.69
2019-02-02T21:52:47.694Z,1.66
2019-02-02T21:55:18.636Z,1.61
2019-02-02T21:57:47.095Z,1.62
2019-02-02T22:00:22.672Z,1.63
2019-02-02T22:02:51.199Z,1.54
2019-02-02T22:05:19.761Z,1.59
2019-02-02T22:07:48.291Z,1.65
2019-02-02T22:10:17.101Z,1.59
2019-02-02T22:12:45.658Z,1.63
2019-02-02T22:15:22.995Z,1.66
2019-02-02T22:17:51.560Z,1.68
2019-02-02T22:20:20.098Z,1.68
2019-02-02T22:22:48.602Z,1.59
2019-02-02T22:25:22.673Z,1.45
2019-02-02T22:27:51.301Z,1.56
2019-02-02T22:30:25.332Z,1.58
2019-02-02T22:32:53.820Z,1.64
2019-02-02T22:35:22.300Z,1.59
2019-02-02T22:37:50.779Z,1.59
2019-02-02T22:40:27.183Z,1.61
2019-02-02T22:42:55.735Z,1.55
2019-02-02T22:45:24.561Z,1.49
2019-02-02T22:47:53.824Z,1.54
2019-02-02T22:50:25.027Z,1.57
2019-02-02T22:52:54.137Z,1.70
2019-02-02T22:55:26.775Z,1.52
2019-02-02T22:57:55.631Z,1.53
2019-02-02T23:00:43.836Z,1.50
2019-02-02T23:03:15.468Z,1.53
2019-02-02T23:06:21.935Z,1.76
2019-02-02T23:09:14.459Z,1.58
2019-02-02T23:12:07.441Z,1.57
2019-02-02T23:15:15.652Z,1.54
2019-02-02T23:17:44.530Z,1.48
2019-02-02T23:20:13.000Z,1.41
2019-02-02T23:22:42.804Z,1.41
2019-02-02T23:25:11.623Z,1.34
2019-02-02T23:27:40.402Z,1.34
2019-02-02T23:30:14.602Z,1.31
2019-02-02T23:32:43.853Z,1.30
2019-02-02T23:35:13.198Z,1.30
2019-02-02T23:37:41.740Z,1.30
2019-02-02T23:40:12.433Z,1.31
2019-02-02T23:42:41.021Z,1.27
2019-02-02T23:45:10.778Z,1.27
2019-02-02T23:47:39.392Z,1.28
2019-02-02T23:50:09.999Z,1.28
2019-02-02T23:52:38.488Z,1.30
2019-02-02T23:55:09.539Z,1.29
2019-02-02T23:57:38.465Z,1.31
